Time;durP1;ratioP1;P1;durP2;ratioP2;P2;SDS_P1;SDS_P2;PMS_P1;PMS_P2;Temp;Humidity;BMP_temperature;BMP_pressure;BME280_temperature;BME280_humidity;BME280_pressure;Samples;Min_cycle;Max_cycle;Signal;HPM_P1;HPM_P2
2021/04/21 00:01:41;;;;;;;14.10;10.60;;;10.40;74.00;;;;;;4993874;28;20037;-64
2021/04/21 00:04:13;;;;;;;12.48;10.25;;;10.30;74.00;;;;;;4994025;28;20033;-64
2021/04/21 00:06:40;;;;;;;12.85;11.05;;;10.30;73.90;;;;;;5005280;28;20042;-64
2021/04/21 00:09:10;;;;;;;14.38;10.95;;;10.30;74.40;;;;;;4994008;28;20056;-64
2021/04/21 00:11:38;;;;;;;12.65;10.13;;;10.20;74.30;;;;;;4994273;28;20022;-64
2021/04/21 00:14:04;;;;;;;13.55;10.40;;;10.20;74.30;;;;;;5006644;28;20470;-64
2021/04/21 00:16:33;;;;;;;11.25;9.73;;;10.20;74.40;;;;;;4993920;28;20030;-64
2021/04/21 00:19:01;;;;;;;13.05;10.30;;;10.20;74.80;;;;;;4993841;28;20463;-64
2021/04/21 00:21:27;;;;;;;11.95;10.13;;;10.10;74.60;;;;;;4994054;28;20026;-64
2021/04/21 00:23:53;;;;;;;11.80;9.95;;;10.20;74.80;;;;;;4993700;28;20080;-64
2021/04/21 00:26:23;;;;;;;12.98;10.55;;;10.20;74.70;;;;;;5011756;28;20458;-64
2021/04/21 00:28:52;;;;;;;13.00;10.90;;;10.10;74.70;;;;;;5008246;28;20022;-64
2021/04/21 00:31:19;;;;;;;13.40;11.27;;;10.10;74.80;;;;;;5001625;28;20022;-64
2021/04/21 00:33:51;;;;;;;13.63;10.35;;;10.10;74.90;;;;;;5005785;28;20066;-64
2021/04/21 00:36:19;;;;;;;13.77;11.43;;;10.10;74.90;;;;;;4993370;28;20118;-64
2021/04/21 00:38:48;;;;;;;11.85;10.40;;;10.10;75.20;;;;;;4993577;28;20528;-64
2021/04/21 00:41:22;;;;;;;14.70;11.18;;;10.10;75.30;;;;;;4993598;28;20022;-64
2021/04/21 00:44:02;;;;;;;12.18;10.23;;;10.20;75.30;;;;;;4995687;28;20401;-64
2021/04/21 00:46:44;;;;;;;10.48;8.85;;;10.20;75.10;;;;;;5014014;28;20030;-64
2021/04/21 00:49:22;;;;;;;11.05;9.10;;;10.20;75.10;;;;;;5008134;28;20068;-64
2021/04/21 00:51:57;;;;;;;12.57;9.48;;;10.30;75.60;;;;;;4993759;28;20154;-64
2021/04/21 00:54:33;;;;;;;12.15;9.18;;;10.30;74.70;;;;;;4994689;28;20496;-64
2021/04/21 00:57:25;;;;;;;11.90;8.77;;;10.30;74.40;;;;;;4997269;28;20034;-64
2021/04/21 01:00:13;;;;;;;11.48;9.20;;;10.30;74.40;;;;;;4993717;28;20022;-64
2021/04/21 01:02:45;;;;;;;11.35;9.00;;;10.30;74.10;;;;;;4993638;28;20483;-64
2021/04/21 01:05:17;;;;;;;12.73;9.73;;;10.30;74.30;;;;;;4993601;28;20030;-64
2021/04/21 01:07:46;;;;;;;14.32;10.07;;;10.30;74.30;;;;;;4974087;28;20050;-64
2021/04/21 01:10:14;;;;;;;11.32;9.52;;;10.30;74.10;;;;;;4974118;28;20061;-64
2021/04/21 01:12:42;;;;;;;13.35;9.30;;;10.30;74.10;;;;;;4980179;28;20018;-64
2021/04/21 01:15:12;;;;;;;11.73;9.43;;;10.30;74.30;;;;;;4973866;28;20055;-64
2021/04/21 01:17:40;;;;;;;11.90;9.20;;;10.20;74.20;;;;;;4974015;28;20049;-64
2021/04/21 01:20:27;;;;;;;12.45;9.93;;;10.10;74.10;;;;;;4975676;28;20015;-64
2021/04/21 01:23:50;;;;;;;13.25;9.80;;;10.10;73.90;;;;;;4973642;28;20038;-64
2021/04/21 01:26:55;;;;;;;14.18;10.55;;;10.10;74.10;;;;;;4974257;28;20356;-64
2021/04/21 01:29:31;;;;;;;12.90;10.13;;;10.00;74.10;;;;;;4980217;28;20370;-64
2021/04/21 01:32:01;;;;;;;13.15;10.88;;;9.90;74.10;;;;;;4991925;28;20041;-64
2021/04/21 01:34:30;;;;;;;15.73;11.30;;;9.90;74.10;;;;;;4975769;28;20019;-64
2021/04/21 01:36:58;;;;;;;14.40;11.25;;;9.90;74.50;;;;;;4981707;28;20409;-64
2021/04/21 01:39:25;;;;;;;14.52;11.55;;;9.90;74.60;;;;;;4979466;28;20037;-64
2021/04/21 01:41:55;;;;;;;15.70;12.23;;;9.90;74.90;;;;;;4977239;28;20031;-64
2021/04/21 01:44:30;;;;;;;14.98;11.60;;;9.90;75.00;;;;;;4976168;28;20042;-64
2021/04/21 01:47:11;;;;;;;13.52;10.60;;;9.90;74.90;;;;;;4991653;28;20104;-64
2021/04/21 01:49:36;;;;;;;14.95;11.32;;;9.90;74.70;;;;;;4991383;28;20038;-65
2021/04/21 01:52:22;;;;;;;14.27;11.23;;;9.90;74.80;;;;;;4979354;28;20053;-64
2021/04/21 01:54:53;;;;;;;15.70;11.75;;;10.00;74.60;;;;;;4977104;28;20019;-64
2021/04/21 01:57:22;;;;;;;;;;;10.00;74.60;;;;;;4996202;28;20037;-64
2021/04/21 01:59:54;;;;;;;14.85;10.40;;;10.00;74.30;;;;;;4984421;28;19912;-64
2021/04/21 02:02:29;;;;;;;14.65;10.65;;;10.00;74.70;;;;;;4987881;28;20463;-64
2021/04/21 02:05:26;;;;;;;15.25;11.38;;;10.00;74.50;;;;;;4987352;28;20023;-64
2021/04/21 02:08:03;;;;;;;14.75;10.80;;;10.00;74.50;;;;;;4996375;28;20034;-64
2021/04/21 02:10:39;;;;;;;14.55;11.32;;;10.00;74.60;;;;;;5000108;28;20035;-64
2021/04/21 02:13:29;;;;;;;15.73;12.18;;;10.00;74.60;;;;;;5009761;28;20109;-64
2021/04/21 02:16:13;;;;;;;14.35;11.68;;;10.10;74.80;;;;;;4996275;28;20022;-64
2021/04/21 02:18:42;;;;;;;16.48;12.48;;;10.10;74.30;;;;;;5008862;28;20343;-64
2021/04/21 02:21:44;;;;;;;17.25;12.75;;;10.10;74.50;;;;;;4996078;28;20027;-64
2021/04/21 02:24:49;;;;;;;16.45;11.32;;;10.20;74.30;;;;;;4993976;28;20046;-64
2021/04/21 02:27:23;;;;;;;15.75;12.57;;;10.10;74.10;;;;;;4995949;28;20053;-64
2021/04/21 02:29:57;;;;;;;16.02;12.48;;;10.10;74.30;;;;;;5004391;28;20029;-64
2021/04/21 02:32:59;;;;;;;16.27;12.85;;;10.20;74.50;;;;;;4996118;28;20161;-64
2021/04/21 02:35:36;;;;;;;14.63;12.05;;;10.20;74.30;;;;;;4995964;28;20030;-64
2021/04/21 02:38:13;;;;;;;16.58;12.68;;;10.20;74.40;;;;;;4995836;28;20383;-64
2021/04/21 02:41:00;;;;;;;19.00;13.77;;;10.20;74.60;;;;;;4995706;28;20023;-64
2021/04/21 02:43:56;;;;;;;16.83;12.27;;;10.20;74.50;;;;;;4995699;28;20030;-64
2021/04/21 02:46:26;;;;;;;19.00;13.95;;;10.20;74.20;;;;;;4998861;28;20027;-64
2021/04/21 02:49:10;;;;;;;18.60;13.93;;;10.20;74.20;;;;;;5000266;28;20122;-64
2021/04/21 02:51:57;;;;;;;17.63;13.20;;;10.20;74.40;;;;;;4994674;28;20073;-64
2021/04/21 02:54:38;;;;;;;19.98;14.38;;;10.20;74.30;;;;;;4995283;28;20025;-64
2021/04/21 02:57:28;;;;;;;19.20;14.07;;;10.20;74.30;;;;;;4995277;28;20081;-64
2021/04/21 03:00:19;;;;;;;20.75;13.73;;;10.20;74.30;;;;;;4995308;28;20058;-64
2021/04/21 03:02:52;;;;;;;;;;;10.20;73.80;;;;;;4995859;28;20034;-64
2021/04/21 03:05:28;;;;;;;18.73;14.02;;;10.10;73.70;;;;;;4995245;28;20364;-64
2021/04/21 03:08:21;;;;;;;19.27;14.38;;;10.10;73.90;;;;;;4999689;28;20042;-64
2021/04/21 03:11:11;;;;;;;18.70;14.35;;;10.10;73.90;;;;;;4995070;28;20724;-64
2021/04/21 03:14:02;;;;;;;22.58;16.60;;;10.10;74.10;;;;;;5000015;28;20085;-64
2021/04/21 03:16:32;;;;;;;22.52;16.35;;;10.10;74.10;;;;;;5002686;28;20019;-64
2021/04/21 03:19:02;;;;;;;23.50;17.65;;;10.10;74.10;;;;;;4994804;28;20027;-64
2021/04/21 03:21:30;;;;;;;23.65;17.35;;;10.10;74.10;;;;;;4994970;28;20409;-64
2021/04/21 03:24:26;;;;;;;20.65;16.30;;;10.10;74.30;;;;;;4994948;28;20046;-64
2021/04/21 03:26:54;;;;;;;23.63;15.60;;;10.10;74.10;;;;;;4994863;28;20046;-64
2021/04/21 03:29:25;;;;;;;22.70;17.42;;;10.20;74.20;;;;;;4999002;28;20060;-64
2021/04/21 03:31:52;;;;;;;;;;;10.20;74.40;;;;;;4995290;28;20088;-64
2021/04/21 03:34:20;;;;;;;24.35;16.50;;;10.20;74.10;;;;;;4994474;28;19917;-64
2021/04/21 03:36:46;;;;;;;25.75;17.45;;;10.30;74.40;;;;;;5001587;28;20116;-64
2021/04/21 03:39:12;;;;;;;27.17;17.05;;;10.40;73.90;;;;;;5000701;28;20106;-64
2021/04/21 03:41:40;;;;;;;26.30;18.45;;;10.40;73.60;;;;;;5006444;28;20045;-64
2021/04/21 03:44:06;;;;;;;28.02;17.20;;;10.40;73.40;;;;;;4995150;28;20088;-64
2021/04/21 03:46:33;;;;;;;22.58;16.90;;;10.50;73.20;;;;;;5004457;28;20030;-64
2021/04/21 03:49:00;;;;;;;26.63;17.17;;;10.50;73.00;;;;;;5012238;28;20026;-64
2021/04/21 03:51:26;;;;;;;24.02;16.25;;;10.50;73.00;;;;;;5013259;28;20377;-64
2021/04/21 03:53:53;;;;;;;22.75;16.05;;;10.50;73.40;;;;;;5007742;28;20482;-64
2021/04/21 03:56:23;;;;;;;21.38;16.25;;;10.60;73.60;;;;;;5003936;28;20152;-64
2021/04/21 03:58:51;;;;;;;24.88;17.45;;;10.70;73.60;;;;;;5005734;28;20034;-64
2021/04/21 04:01:19;;;;;;;24.35;16.48;;;10.90;73.80;;;;;;5002548;28;20110;-64
2021/04/21 04:03:51;;;;;;;23.63;16.45;;;11.00;73.90;;;;;;5005796;28;20026;-64
2021/04/21 04:06:24;;;;;;;22.48;15.65;;;11.10;73.90;;;;;;5009982;28;20073;-64
2021/04/21 04:09:01;;;;;;;22.80;15.75;;;11.30;74.00;;;;;;4999178;28;20031;-64
2021/04/21 04:11:32;;;;;;;19.20;15.10;;;11.60;73.80;;;;;;5010152;28;20037;-64
2021/04/21 04:14:07;;;;;;;24.83;15.88;;;11.80;73.30;;;;;;5001202;28;20092;-64
2021/04/21 04:16:36;;;;;;;20.90;15.35;;;12.10;72.70;;;;;;5004086;28;20029;-64
2021/04/21 04:19:03;;;;;;;19.55;14.60;;;12.40;72.20;;;;;;4997516;28;20541;-64
2021/04/21 04:21:33;;;;;;;19.45;15.15;;;12.70;71.50;;;;;;5001395;28;20025;-64
2021/04/21 04:24:01;;;;;;;22.58;14.65;;;13.00;70.30;;;;;;5008045;28;20038;-64
2021/04/21 04:26:27;;;;;;;21.70;15.50;;;13.30;70.00;;;;;;5008687;28;20076;-64
2021/04/21 04:28:54;;;;;;;19.60;15.68;;;13.70;68.50;;;;;;5007845;28;20033;-64
2021/04/21 04:31:21;;;;;;;19.70;15.40;;;13.90;67.50;;;;;;4996762;28;20025;-64
2021/04/21 04:33:51;;;;;;;18.05;14.93;;;14.10;66.90;;;;;;5005457;28;20034;-64
2021/04/21 04:36:17;;;;;;;16.38;14.05;;;14.40;66.00;;;;;;4999584;28;20025;-64
2021/04/21 04:38:43;;;;;;;20.85;14.50;;;14.70;66.00;;;;;;5008750;28;20033;-64
2021/04/21 04:41:10;;;;;;;16.48;14.15;;;15.00;65.20;;;;;;5006271;28;20433;-64
2021/04/21 04:43:38;;;;;;;19.98;14.48;;;15.40;64.30;;;;;;5009940;28;20033;-64
2021/04/21 04:46:06;;;;;;;19.08;14.52;;;15.80;63.40;;;;;;5010168;28;20125;-64
2021/04/21 04:48:47;;;;;;;17.63;13.93;;;16.20;62.50;;;;;;4993709;28;20044;-64
2021/04/21 04:51:15;;;;;;;;;;;16.60;61.40;;;;;;4994112;28;20030;-64
2021/04/21 04:53:42;;;;;;;15.77;12.63;;;16.70;61.20;;;;;;4993573;28;20007;-62
2021/04/21 04:56:08;;;;;;;16.52;13.20;;;17.10;61.50;;;;;;4993511;28;20030;-62
2021/04/21 04:58:35;;;;;;;15.90;12.75;;;17.60;60.30;;;;;;4996100;28;20036;-61
2021/04/21 05:01:09;;;;;;;15.90;12.75;;;17.90;59.10;;;;;;4992852;28;20038;-64
2021/04/21 05:03:52;;;;;;;16.40;12.73;;;18.10;58.40;;;;;;4992428;28;20069;-62
2021/04/21 05:06:23;;;;;;;17.05;12.30;;;18.40;58.40;;;;;;4996092;28;20499;-57
2021/04/21 05:08:53;;;;;;;17.25;12.95;;;18.50;57.10;;;;;;4992548;28;20058;-57
2021/04/21 05:11:23;;;;;;;18.15;12.65;;;18.30;56.10;;;;;;4992693;28;20031;-57
2021/04/21 05:13:50;;;;;;;19.08;13.32;;;17.90;55.80;;;;;;5000800;28;20068;-57
2021/04/21 05:16:26;;;;;;;15.55;11.63;;;17.40;56.10;;;;;;5005328;28;20030;-61
2021/04/21 05:19:09;;;;;;;16.95;12.18;;;17.00;56.80;;;;;;5002030;28;20028;-64
2021/04/21 05:22:12;;;;;;;17.50;12.70;;;16.60;57.30;;;;;;4999796;28;20084;-63
2021/04/21 05:25:08;;;;;;;15.05;11.43;;;16.50;58.40;;;;;;5007904;28;20113;-63
2021/04/21 05:27:54;;;;;;;12.55;10.00;;;16.80;58.70;;;;;;5004794;28;20022;-63
2021/04/21 05:30:44;;;;;;;10.90;8.40;;;17.20;58.40;;;;;;5004426;28;20030;-62
2021/04/21 05:33:28;;;;;;;10.50;8.57;;;17.60;57.10;;;;;;5010364;28;20041;-63
2021/04/21 05:36:22;;;;;;;9.27;8.07;;;17.70;56.40;;;;;;5007352;28;20034;-63
2021/04/21 05:39:25;;;;;;;9.60;8.30;;;17.50;56.10;;;;;;5007263;28;20771;-63
2021/04/21 05:42:12;;;;;;;9.75;6.90;;;17.00;56.20;;;;;;5006800;28;20050;-63
2021/04/21 05:45:13;;;;;;;9.35;7.60;;;16.40;57.00;;;;;;5010104;28;20026;-63
2021/04/21 05:48:12;;;;;;;9.57;7.80;;;15.70;58.00;;;;;;4911572;29;20036;-63
2021/04/21 05:50:46;;;;;;;8.90;8.00;;;15.20;59.00;;;;;;5010921;28;20048;-64
2021/04/21 05:53:18;;;;;;;9.55;7.50;;;14.90;60.00;;;;;;5004341;28;20029;-63
2021/04/21 05:56:14;;;;;;;11.70;8.48;;;14.60;60.20;;;;;;5005262;28;20034;-63
2021/04/21 05:59:06;;;;;;;10.98;9.18;;;14.40;60.80;;;;;;4942444;28;20096;-63
2021/04/21 06:01:39;;;;;;;11.70;8.60;;;14.10;61.50;;;;;;5005678;28;20022;-63
2021/04/21 06:04:05;;;;;;;10.07;7.93;;;14.00;62.20;;;;;;5001006;28;20985;-65
2021/04/21 06:06:30;;;;;;;9.48;8.18;;;13.90;62.70;;;;;;5006118;28;20049;-65
2021/04/21 06:09:04;;;;;;;10.32;8.90;;;13.80;63.20;;;;;;5007970;28;20113;-64
2021/04/21 06:11:30;;;;;;;9.38;7.72;;;13.70;63.60;;;;;;5003505;28;20056;-65
2021/04/21 06:13:59;;;;;;;9.43;8.07;;;13.60;63.70;;;;;;4995918;28;21999;-55
2021/04/21 06:16:26;;;;;;;10.30;8.05;;;13.50;63.90;;;;;;4991384;28;20030;-54
2021/04/21 06:19:02;;;;;;;8.80;7.38;;;13.30;64.20;;;;;;5005860;28;20030;-51
2021/04/21 06:21:32;;;;;;;10.70;8.60;;;13.20;64.70;;;;;;4998006;28;20505;-52
2021/04/21 06:23:58;;;;;;;12.50;9.05;;;13.10;65.00;;;;;;4997908;28;20607;-55
2021/04/21 06:26:28;;;;;;;10.75;9.50;;;13.00;65.60;;;;;;4998924;28;20061;-51
2021/04/21 06:29:12;;;;;;;11.75;9.30;;;12.90;66.00;;;;;;4999026;28;20041;-55
2021/04/21 06:31:49;;;;;;;13.40;9.52;;;12.90;66.40;;;;;;5000738;28;20057;-55
2021/04/21 06:34:15;;;;;;;10.75;8.80;;;12.90;67.10;;;;;;5001549;28;20060;-56
2021/04/21 06:36:50;;;;;;;11.32;9.05;;;12.80;67.60;;;;;;5003324;28;20034;-53
2021/04/21 06:39:22;;;;;;;9.70;8.20;;;12.90;67.80;;;;;;5001719;28;20109;-54
2021/04/21 06:41:54;;;;;;;9.85;8.48;;;12.80;68.30;;;;;;5005130;28;20034;-55
2021/04/21 06:44:31;;;;;;;10.40;9.25;;;12.90;68.50;;;;;;5004051;28;20034;-56
2021/04/21 06:46:57;;;;;;;12.55;9.48;;;12.90;68.80;;;;;;4999816;28;20040;-56
2021/04/21 06:49:22;;;;;;;11.45;9.02;;;12.90;69.20;;;;;;5000937;28;20029;-57
2021/04/21 06:51:48;;;;;;;10.98;8.63;;;12.90;69.30;;;;;;4998637;28;20030;-55
2021/04/21 06:54:15;;;;;;;11.60;9.13;;;12.90;69.40;;;;;;4997491;28;20030;-57
2021/04/21 06:56:40;;;;;;;10.00;8.77;;;12.90;69.70;;;;;;4979273;28;20045;-52
2021/04/21 06:59:06;;;;;;;9.90;8.50;;;12.90;69.70;;;;;;4992656;28;20029;-57
2021/04/21 07:01:32;;;;;;;11.27;8.88;;;12.90;69.80;;;;;;4999102;28;20885;-53
2021/04/21 07:04:10;;;;;;;11.40;9.63;;;13.00;69.80;;;;;;4999948;28;20040;-55
2021/04/21 07:06:37;;;;;;;9.98;8.90;;;13.00;70.00;;;;;;4993879;28;20058;-55
2021/04/21 07:09:14;;;;;;;11.07;8.60;;;13.10;70.10;;;;;;4994922;28;20078;-55
2021/04/21 07:11:44;;;;;;;11.77;9.60;;;13.20;70.50;;;;;;4995113;28;20806;-53
2021/04/21 07:14:14;;;;;;;13.25;9.60;;;13.30;71.40;;;;;;4994834;28;20088;-54
2021/04/21 07:16:41;;;;;;;10.95;9.55;;;13.50;72.00;;;;;;4973681;28;20038;-55
2021/04/21 07:19:11;;;;;;;9.75;8.75;;;13.60;71.30;;;;;;4995744;28;20058;-55
2021/04/21 07:21:40;;;;;;;11.95;9.02;;;13.80;71.00;;;;;;4998037;28;20112;-53
2021/04/21 07:24:06;;;;;;;10.80;8.68;;;13.90;70.60;;;;;;4995820;28;20091;-49
2021/04/21 07:26:37;;;;;;;9.48;8.05;;;14.00;70.10;;;;;;4995704;28;20033;-53
2021/04/21 07:29:05;;;;;;;10.52;7.63;;;14.00;69.50;;;;;;4997614;28;20415;-49
2021/04/21 07:31:36;;;;;;;9.27;7.88;;;14.00;68.90;;;;;;4991510;28;20061;-55
2021/04/21 07:34:02;;;;;;;9.80;7.93;;;14.00;68.90;;;;;;4990028;28;20030;-53
2021/04/21 07:36:27;;;;;;;9.52;8.30;;;14.00;69.00;;;;;;4987376;28;20040;-55
2021/04/21 07:39:07;;;;;;;9.52;8.50;;;14.00;68.90;;;;;;4994001;28;20026;-55
2021/04/21 07:41:38;;;;;;;10.30;7.45;;;14.00;68.80;;;;;;4994389;28;20722;-55
2021/04/21 07:44:24;;;;;;;8.45;7.55;;;13.90;68.70;;;;;;4989373;28;20993;-55
2021/04/21 07:47:06;;;;;;;9.90;7.78;;;14.00;68.90;;;;;;4993201;28;20052;-52
2021/04/21 07:49:32;;;;;;;;;;;13.90;68.30;;;;;;4990425;28;20043;-56
2021/04/21 07:51:58;;;;;;;9.13;6.93;;;13.80;68.10;;;;;;4990384;28;20372;-55
2021/04/21 07:54:26;;;;;;;10.15;7.32;;;13.90;68.20;;;;;;4990447;28;20030;-56
2021/04/21 07:57:04;;;;;;;7.82;6.57;;;13.80;68.40;;;;;;4988026;28;20034;-56
2021/04/21 07:59:41;;;;;;;7.53;6.30;;;13.90;68.40;;;;;;4992013;28;20116;-57
2021/04/21 08:02:17;;;;;;;8.50;7.30;;;13.90;68.40;;;;;;4991580;28;20501;-55
2021/04/21 08:04:48;;;;;;;9.57;7.40;;;13.90;68.60;;;;;;4994696;28;20030;-56
2021/04/21 08:07:33;;;;;;;8.98;7.47;;;13.90;68.90;;;;;;4994453;28;20702;-57
2021/04/21 08:10:00;;;;;;;7.68;6.35;;;14.00;69.30;;;;;;4994859;28;20037;-57
2021/04/21 08:12:31;;;;;;;7.35;6.38;;;14.20;68.70;;;;;;4999721;28;20033;-55
2021/04/21 08:15:03;;;;;;;7.38;6.20;;;14.30;68.30;;;;;;4993562;28;20038;-57
2021/04/21 08:17:29;;;;;;;8.05;6.68;;;14.30;67.80;;;;;;4989191;28;20076;-56
2021/04/21 08:19:58;;;;;;;8.50;7.30;;;14.30;68.00;;;;;;4987498;28;20140;-55
2021/04/21 08:22:28;;;;;;;7.65;6.72;;;14.40;69.00;;;;;;4991877;28;20437;-58
2021/04/21 08:24:57;;;;;;;8.07;6.30;;;14.50;67.90;;;;;;4997295;28;20048;-59
2021/04/21 08:27:25;;;;;;;7.25;6.00;;;14.50;66.90;;;;;;4997884;28;20747;-53
2021/04/21 08:29:51;;;;;;;7.47;5.65;;;14.40;66.30;;;;;;4992472;28;20121;-57
2021/04/21 08:32:22;;;;;;;7.03;6.15;;;14.30;66.30;;;;;;4991547;28;20069;-56
2021/04/21 08:34:51;;;;;;;8.55;6.50;;;14.30;66.60;;;;;;4988366;28;20088;-55
2021/04/21 08:37:18;;;;;;;6.60;5.90;;;14.20;66.70;;;;;;4969171;28;20998;-58
2021/04/21 08:39:45;;;;;;;7.63;6.10;;;14.20;66.60;;;;;;4993303;28;20514;-56
2021/04/21 08:42:13;;;;;;;7.57;6.40;;;14.20;66.70;;;;;;4994570;28;20041;-52
2021/04/21 08:44:43;;;;;;;7.93;6.70;;;14.10;66.70;;;;;;5000432;28;20030;-56
2021/04/21 08:47:12;;;;;;;6.90;5.85;;;14.10;66.90;;;;;;4996586;28;20046;-54
2021/04/21 08:49:39;;;;;;;7.18;5.97;;;14.10;66.70;;;;;;4998566;28;20657;-59
2021/04/21 08:52:06;;;;;;;13.13;10.88;;;14.10;66.70;;;;;;4980667;28;20045;-55
2021/04/21 08:54:33;;;;;;;9.00;7.88;;;14.10;66.50;;;;;;4995467;28;20048;-58
2021/04/21 08:57:00;;;;;;;7.68;6.40;;;14.00;67.00;;;;;;4994770;28;20057;-57
2021/04/21 08:59:26;;;;;;;6.63;5.93;;;14.00;67.20;;;;;;4994810;28;20485;-58
2021/04/21 09:01:52;;;;;;;6.95;6.25;;;14.00;67.30;;;;;;4981270;28;20168;-56
2021/04/21 09:04:19;;;;;;;6.47;5.72;;;14.20;67.40;;;;;;4994513;28;20042;-52
2021/04/21 09:06:46;;;;;;;5.75;5.05;;;14.20;67.00;;;;;;4996217;28;20666;-57
2021/04/21 09:09:16;;;;;;;6.07;5.13;;;14.30;66.50;;;;;;4996712;28;20140;-60
2021/04/21 09:11:43;;;;;;;5.28;4.78;;;14.30;66.30;;;;;;4992818;28;20037;-57
2021/04/21 09:14:09;;;;;;;6.95;5.60;;;14.40;66.20;;;;;;4996442;28;20739;-54
2021/04/21 09:16:36;;;;;;;5.72;4.78;;;14.30;65.90;;;;;;4998271;28;20651;-57
2021/04/21 09:19:15;;;;;;;6.47;5.00;;;14.30;65.90;;;;;;4998983;28;20121;-57
2021/04/21 09:21:41;;;;;;;5.30;4.57;;;14.30;65.70;;;;;;4995598;28;20387;-58
2021/04/21 09:24:27;;;;;;;5.50;4.90;;;14.30;65.50;;;;;;4998995;28;20041;-57
2021/04/21 09:26:53;;;;;;;5.32;4.60;;;14.20;65.90;;;;;;4997709;28;20365;-57
2021/04/21 09:29:33;;;;;;;5.13;4.45;;;14.10;65.10;;;;;;5000135;28;20851;-57
2021/04/21 09:32:10;;;;;;;5.50;4.65;;;13.90;65.40;;;;;;4999123;28;20048;-57
2021/04/21 09:34:36;;;;;;;6.72;5.03;;;13.70;65.50;;;;;;4995296;28;20091;-56
2021/04/21 09:37:02;;;;;;;10.23;5.15;;;13.70;66.00;;;;;;4995754;28;20372;-57
2021/04/21 09:39:36;;;;;;;6.97;5.57;;;13.50;66.30;;;;;;4992687;28;20057;-56
2021/04/21 09:42:03;;;;;;;6.47;5.15;;;13.40;66.90;;;;;;4994693;28;20033;-57
2021/04/21 09:44:30;;;;;;;5.97;4.50;;;13.30;67.80;;;;;;4997482;28;20040;-56
2021/04/21 09:46:58;;;;;;;6.82;6.13;;;13.20;68.40;;;;;;4998145;28;20038;-52
2021/04/21 09:49:37;;;;;;;6.20;5.40;;;13.20;69.10;;;;;;4996495;28;21102;-57
2021/04/21 09:52:22;;;;;;;6.75;5.63;;;13.20;69.50;;;;;;4992447;28;21023;-57
2021/04/21 09:54:50;;;;;;;7.97;5.97;;;13.20;70.00;;;;;;4994546;28;20077;-56
2021/04/21 09:57:23;;;;;;;8.38;7.05;;;13.30;70.20;;;;;;4999806;28;20030;-58
2021/04/21 09:59:58;;;;;;;7.28;5.93;;;13.40;70.40;;;;;;4991185;28;20548;-58
2021/04/21 10:02:40;;;;;;;8.30;6.40;;;13.50;70.10;;;;;;4994623;28;20038;-57
2021/04/21 10:05:30;;;;;;;8.95;6.32;;;13.50;69.60;;;;;;4986304;28;20389;-58
2021/04/21 10:08:25;;;;;;;7.35;6.15;;;13.60;70.10;;;;;;4991879;28;20080;-56
2021/04/21 10:11:05;;;;;;;6.22;5.55;;;13.70;70.40;;;;;;4988030;28;20022;-56
2021/04/21 10:13:41;;;;;;;7.80;6.45;;;13.80;69.80;;;;;;4993637;28;20030;-55
2021/04/21 10:16:08;;;;;;;7.18;5.95;;;13.80;69.60;;;;;;4995281;28;20056;-57
2021/04/21 10:18:34;;;;;;;7.00;5.80;;;13.90;69.50;;;;;;5000657;28;20064;-54
2021/04/21 10:21:01;;;;;;;6.97;6.28;;;14.00;69.30;;;;;;4999080;28;20034;-57
2021/04/21 10:23:27;;;;;;;7.00;6.13;;;14.00;69.40;;;;;;4998044;28;20121;-57
2021/04/21 10:25:53;;;;;;;6.65;5.82;;;14.10;68.90;;;;;;5001567;28;20100;-57
2021/04/21 10:28:19;;;;;;;7.72;6.10;;;14.20;68.80;;;;;;4998366;28;20405;-56
2021/04/21 10:30:46;;;;;;;5.78;4.90;;;14.30;68.80;;;;;;4990764;28;20105;-55
2021/04/21 10:33:14;;;;;;;7.32;6.05;;;14.30;68.10;;;;;;4995091;28;20049;-57
2021/04/21 10:35:40;;;;;;;5.88;5.05;;;14.40;68.20;;;;;;4994353;28;20073;-57
2021/04/21 10:38:06;;;;;;;5.50;4.90;;;14.50;68.30;;;;;;4995943;28;20046;-56
2021/04/21 10:40:32;;;;;;;5.00;4.50;;;14.60;67.70;;;;;;4992528;28;20071;-57
2021/04/21 10:43:04;;;;;;;4.35;3.95;;;14.70;66.80;;;;;;5000633;28;20053;-55
2021/04/21 10:45:31;;;;;;;5.00;4.50;;;14.80;66.30;;;;;;4999411;28;20428;-57
2021/04/21 10:47:58;;;;;;;4.05;3.60;;;15.00;65.90;;;;;;4996113;28;20030;-57
2021/04/21 10:50:42;;;;;;;5.65;4.30;;;15.10;65.30;;;;;;4980664;28;20034;-57
2021/04/21 10:53:44;;;;;;;3.60;3.30;;;15.20;64.50;;;;;;4990022;28;20038;-57
2021/04/21 10:56:20;;;;;;;6.70;4.57;;;15.20;63.70;;;;;;4983451;28;20038;-57
2021/04/21 10:58:54;;;;;;;4.20;3.60;;;15.20;63.40;;;;;;4987270;28;20065;-58
2021/04/21 11:01:33;;;;;;;4.63;3.97;;;15.20;63.00;;;;;;4978646;28;20528;-56
2021/04/21 11:04:00;;;;;;;4.30;3.63;;;15.20;62.10;;;;;;4999359;28;20401;-57
2021/04/21 11:06:52;;;;;;;4.82;3.65;;;15.10;61.60;;;;;;4990174;28;20050;-55
2021/04/21 11:09:18;;;;;;;3.67;3.38;;;15.00;61.80;;;;;;4987602;28;20057;-54
2021/04/21 11:11:49;;;;;;;3.70;3.30;;;14.90;62.10;;;;;;4996400;28;20029;-54
2021/04/21 11:14:56;;;;;;;3.90;3.60;;;14.80;62.50;;;;;;4994932;28;20034;-55
2021/04/21 11:17:21;;;;;;;3.88;3.40;;;14.80;62.70;;;;;;4993175;28;20498;-58
2021/04/21 11:19:48;;;;;;;7.55;5.28;;;14.80;62.80;;;;;;4988780;28;20026;-55
2021/04/21 11:22:27;;;;;;;5.07;4.57;;;14.80;63.00;;;;;;4987260;28;23333;-55
2021/04/21 11:25:22;;;;;;;4.70;4.05;;;14.80;63.10;;;;;;5000827;28;20454;-57
2021/04/21 11:27:48;;;;;;;4.47;4.05;;;14.80;63.00;;;;;;4993303;28;20037;-60
2021/04/21 11:30:32;;;;;;;4.80;4.30;;;14.90;62.20;;;;;;4993348;28;20462;-56
2021/04/21 11:32:58;;;;;;;4.10;3.70;;;14.90;61.70;;;;;;4989750;28;20037;-57
2021/04/21 11:35:28;;;;;;;4.50;4.10;;;14.80;60.70;;;;;;4988763;28;20173;-57
2021/04/21 11:37:53;;;;;;;4.47;3.90;;;14.80;60.50;;;;;;4990326;28;20026;-56
2021/04/21 11:40:30;;;;;;;4.85;3.83;;;14.80;60.50;;;;;;4991855;28;20705;-57
2021/04/21 11:43:15;;;;;;;4.13;3.72;;;14.80;60.30;;;;;;4992999;28;20034;-56
2021/04/21 11:45:42;;;;;;;8.48;4.32;;;14.70;60.00;;;;;;4998168;28;20143;-55
2021/04/21 11:48:09;;;;;;;6.07;4.93;;;14.70;60.00;;;;;;5000480;28;20485;-53
2021/04/21 11:50:34;;;;;;;6.00;4.75;;;14.50;61.00;;;;;;4996274;28;20519;-56
2021/04/21 11:53:07;;;;;;;5.65;4.72;;;14.40;61.30;;;;;;4997926;28;20030;-56
2021/04/21 11:58:49;;;;;;;5.50;4.65;;;14.20;62.00;;;;;;4987580;28;20068;-60
2021/04/21 12:01:20;;;;;;;6.35;4.32;;;14.20;62.80;;;;;;4989642;28;20121;-54
2021/04/21 12:03:48;;;;;;;4.93;3.92;;;14.20;62.60;;;;;;4993244;28;20585;-60
2021/04/21 12:06:19;;;;;;;4.50;4.00;;;14.20;62.80;;;;;;4998248;28;20049;-58
2021/04/21 12:08:45;;;;;;;4.95;4.05;;;14.20;63.00;;;;;;4997234;28;20042;-58
2021/04/21 12:11:11;;;;;;;4.68;4.22;;;14.20;63.30;;;;;;4993902;28;20064;-57
2021/04/21 12:13:39;;;;;;;5.05;4.15;;;14.30;63.40;;;;;;4980517;28;20038;-59
2021/04/21 12:16:10;;;;;;;4.88;4.43;;;14.40;63.60;;;;;;4997240;28;20116;-57
2021/04/21 12:18:45;;;;;;;4.50;4.10;;;14.40;63.60;;;;;;4978578;28;20033;-53
2021/04/21 12:21:15;;;;;;;4.90;4.28;;;14.40;63.20;;;;;;4991643;28;20124;-57
2021/04/21 12:23:41;;;;;;;4.93;4.05;;;14.50;63.30;;;;;;4994613;28;20591;-57
2021/04/21 12:26:16;;;;;;;4.93;4.13;;;14.50;63.60;;;;;;4993192;28;20068;-57
2021/04/21 12:28:54;;;;;;;4.13;3.60;;;14.50;63.40;;;;;;4998114;28;20066;-57
2021/04/21 12:31:21;;;;;;;4.22;3.70;;;14.50;63.30;;;;;;4993765;28;20030;-59
2021/04/21 12:33:48;;;;;;;4.45;4.05;;;14.60;62.80;;;;;;4986371;28;20534;-59
2021/04/21 12:36:15;;;;;;;4.20;3.80;;;14.60;62.30;;;;;;4995569;28;20040;-59
2021/04/21 12:38:41;;;;;;;4.50;3.95;;;14.60;62.00;;;;;;4987767;28;20038;-58
2021/04/21 12:41:20;;;;;;;4.40;3.63;;;14.60;61.70;;;;;;4994720;28;20037;-58
2021/04/21 12:43:45;;;;;;;4.13;3.63;;;14.60;61.70;;;;;;4976037;28;20064;-57
2021/04/21 12:46:11;;;;;;;3.75;3.40;;;14.60;60.70;;;;;;4992455;28;20104;-56
2021/04/21 12:48:55;;;;;;;6.95;4.82;;;14.60;61.30;;;;;;4997339;28;20889;-58
2021/04/21 12:51:30;;;;;;;4.43;3.70;;;14.60;61.00;;;;;;4996922;28;20030;-58
2021/04/21 12:54:00;;;;;;;5.80;4.20;;;14.70;60.80;;;;;;4997532;28;20026;-56
2021/04/21 12:56:40;;;;;;;5.00;3.70;;;14.70;60.10;;;;;;4971714;28;20081;-56
2021/04/21 12:59:13;;;;;;;4.18;3.63;;;14.80;60.20;;;;;;4991274;28;20037;-56
2021/04/21 13:01:39;;;;;;;5.20;3.70;;;14.80;60.20;;;;;;4995156;28;20513;-58
2021/04/21 13:04:04;;;;;;;4.07;3.55;;;14.90;60.00;;;;;;4996848;28;20026;-57
2021/04/21 13:06:51;;;;;;;4.93;3.80;;;15.00;59.60;;;;;;4997536;28;20053;-55
2021/04/21 13:09:29;;;;;;;5.78;3.70;;;15.10;59.30;;;;;;4991151;28;20030;-56
2021/04/21 13:12:00;;;;;;;4.93;3.72;;;15.20;59.20;;;;;;4996667;28;20122;-58
2021/04/21 13:14:38;;;;;;;4.22;3.83;;;15.30;59.00;;;;;;4996928;28;20581;-57
2021/04/21 13:17:06;;;;;;;3.88;3.40;;;15.40;58.60;;;;;;4983307;28;20061;-58